Time;durP1;ratioP1;P1;durP2;ratioP2;P2;SDS_P1;SDS_P2;PMS_P1;PMS_P2;Temp;Humidity;BMP_temperature;BMP_pressure;BME280_temperature;BME280_humidity;BME280_pressure;Samples;Min_cycle;Max_cycle;Signal;HPM_P1;HPM_P2
2022/09/08 00:04:57;;;;;;;9.93;3.45;;;;;;;15.63;50.29;100333.20;3528977;82;98778;-88
2022/09/08 00:09:59;;;;;;;8.47;3.07;;;;;;;15.59;50.43;100334.63;3507199;81;98954;-88
2022/09/08 00:15:00;;;;;;;9.53;3.10;;;;;;;15.56;50.44;100349.34;3523071;82;99018;-88
2022/09/08 00:20:02;;;;;;;7.10;3.33;;;;;;;15.55;50.56;100333.91;3511685;82;98989;-88
2022/09/08 00:25:04;;;;;;;8.87;3.93;;;;;;;15.49;50.53;100323.66;3519132;82;99124;-88
2022/09/08 00:30:06;;;;;;;10.87;3.77;;;;;;;15.44;50.70;100326.88;3535151;82;98896;-88
2022/09/08 00:35:18;;;;;;;9.08;3.60;;;;;;;15.38;50.78;100326.52;3551084;80;99021;-88
2022/09/08 00:40:11;;;;;;;8.70;3.70;;;;;;;15.35;50.92;100319.63;3527234;81;99254;-87
2022/09/08 00:45:17;;;;;;;10.50;3.80;;;;;;;15.33;50.88;100323.42;3522615;80;98833;-88
2022/09/08 00:50:24;;;;;;;7.77;3.20;;;;;;;15.28;50.98;100309.98;3536898;82;122594;-89
2022/09/08 00:55:25;;;;;;;8.00;3.62;;;;;;;15.23;51.05;100300.12;3545608;81;99468;-87
2022/09/08 01:00:26;;;;;;;13.13;3.83;;;;;;;15.21;51.12;100316.98;3543066;80;99083;-87
2022/09/08 01:05:33;;;;;;;10.50;3.83;;;;;;;15.18;51.24;100312.25;3544997;80;99837;-88
2022/09/08 01:16:22;;;;;;;12.88;3.62;;;;;;;15.12;51.28;100302.80;3542928;82;98939;-81
2022/09/08 01:21:55;;;;;;;8.13;3.33;;;;;;;15.10;51.54;100301.81;3548224;80;99036;-86
2022/09/08 01:27:14;;;;;;;9.55;3.83;;;;;;;15.07;51.26;100290.77;3542484;81;98973;-88
2022/09/08 01:32:15;;;;;;;10.05;4.60;;;;;;;15.03;51.43;100281.10;3549133;82;98962;-87
2022/09/08 01:37:16;;;;;;;10.47;3.73;;;;;;;14.98;51.62;100287.09;3551135;82;98983;-88
2022/09/08 01:42:17;;;;;;;6.70;3.27;;;;;;;14.95;51.67;100287.13;3527628;82;99034;-87
2022/09/08 01:47:18;;;;;;;9.37;3.60;;;;;;;14.91;51.81;100280.81;3562372;82;99109;-87
2022/09/08 01:52:19;;;;;;;9.43;3.77;;;;;;;14.89;51.92;100283.22;3554585;82;98865;-88
2022/09/08 01:57:20;;;;;;;9.03;3.03;;;;;;;14.83;51.95;100280.09;3557770;81;98998;-87
2022/09/08 02:02:21;;;;;;;11.70;3.77;;;;;;;14.80;52.39;100272.61;3552574;80;98731;-87
2022/09/08 02:07:22;;;;;;;11.90;4.20;;;;;;;14.75;52.22;100263.34;3543773;82;99032;-83
2022/09/08 02:12:23;;;;;;;10.32;4.03;;;;;;;14.72;52.36;100266.16;3551146;81;99135;-83
2022/09/08 02:17:24;;;;;;;9.50;3.40;;;;;;;14.68;52.54;100259.26;3537472;82;99050;-88
2022/09/08 02:22:26;;;;;;;9.58;3.85;;;;;;;14.65;52.68;100255.91;3554050;82;98830;-87
2022/09/08 02:27:27;;;;;;;14.55;4.35;;;;;;;14.65;52.70;100253.72;3527440;82;98879;-88
2022/09/08 02:32:28;;;;;;;11.90;4.47;;;;;;;14.65;52.93;100255.11;3539639;81;99063;-89
2022/09/08 02:37:29;;;;;;;15.40;4.83;;;;;;;14.65;53.01;100258.68;3536332;80;99336;-87
2022/09/08 02:42:30;;;;;;;10.58;3.92;;;;;;;14.68;53.09;100260.64;3528947;81;99396;-88
2022/09/08 02:47:33;;;;;;;9.37;3.80;;;;;;;14.70;53.21;100268.52;3547921;82;108456;-87
2022/09/08 02:52:34;;;;;;;8.45;3.83;;;;;;;14.74;53.28;100263.75;3542265;82;99060;-88
2022/09/08 02:57:35;;;;;;;11.53;4.20;;;;;;;14.72;53.23;100250.30;3541740;81;98818;-87
2022/09/08 03:02:36;;;;;;;10.15;4.00;;;;;;;14.72;53.32;100250.91;3534122;80;99124;-88
2022/09/08 03:07:37;;;;;;;10.33;4.20;;;;;;;14.71;53.46;100247.97;3545828;81;104326;-88
2022/09/08 03:12:38;;;;;;;9.43;3.93;;;;;;;14.71;53.46;100246.58;3532210;82;99254;-89
2022/09/08 03:17:39;;;;;;;8.50;4.17;;;;;;;14.69;53.58;100242.83;3537476;82;98813;-89
2022/09/08 03:22:40;;;;;;;10.10;4.33;;;;;;;14.69;53.65;100242.83;3535591;82;99135;-89
2022/09/08 03:27:42;;;;;;;8.80;3.80;;;;;;;14.66;53.76;100239.47;3539226;81;99183;-88
2022/09/08 03:32:45;;;;;;;8.77;4.10;;;;;;;14.66;54.00;100224.86;3541613;82;98874;-89
2022/09/08 03:37:46;;;;;;;11.15;4.15;;;;;;;14.63;54.02;100225.08;3564995;82;98988;-89
2022/09/08 03:42:47;;;;;;;9.23;3.95;;;;;;;14.62;54.16;100215.78;3539868;82;99553;-89
2022/09/08 03:47:48;;;;;;;12.82;4.47;;;;;;;14.62;54.30;100215.20;3539076;82;98991;-89
2022/09/08 03:52:49;;;;;;;10.25;4.08;;;;;;;14.60;54.33;100212.64;3539545;82;98975;-88
2022/09/08 03:57:50;;;;;;;10.93;4.35;;;;;;;14.58;54.49;100210.86;3545086;81;99127;-88
2022/09/08 04:02:51;;;;;;;10.77;4.57;;;;;;;14.58;54.63;100206.13;3538825;82;98956;-88
2022/09/08 04:07:52;;;;;;;12.63;4.55;;;;;;;14.57;54.79;100193.48;3535914;80;99464;-88
2022/09/08 04:12:53;;;;;;;12.07;4.00;;;;;;;14.58;54.80;100208.09;3551277;81;99194;-88
2022/09/08 04:17:54;;;;;;;8.47;4.27;;;;;;;14.59;54.82;100198.58;3553878;81;99029;-89
2022/09/08 04:22:55;;;;;;;14.35;4.55;;;;;;;14.62;54.75;100210.24;3543512;82;98918;-87
2022/09/08 04:27:56;;;;;;;14.05;4.58;;;;;;;14.64;54.85;100214.77;3536405;81;98877;-90
2022/09/08 04:32:57;;;;;;;10.85;4.80;;;;;;;14.65;54.88;100224.64;3545175;82;99436;-88
2022/09/08 04:37:58;;;;;;;11.55;4.30;;;;;;;14.67;55.11;100219.50;3547811;81;99162;-87
2022/09/08 04:42:59;;;;;;;9.30;4.37;;;;;;;14.66;55.10;100207.62;3541991;80;99199;-88
2022/09/08 04:48:00;;;;;;;9.38;4.53;;;;;;;14.66;55.18;100219.31;3528157;80;98795;-87
2022/09/08 04:53:01;;;;;;;11.20;4.90;;;;;;;14.68;55.17;100231.56;3544307;81;98920;-88
2022/09/08 04:58:02;;;;;;;11.97;4.77;;;;;;;14.70;55.25;100208.38;3541055;81;99144;-88
2022/09/08 05:03:03;;;;;;;10.83;4.53;;;;;;;14.72;55.35;100204.59;3567167;80;99556;-88
2022/09/08 05:08:05;;;;;;;10.70;4.80;;;;;;;14.74;55.41;100206.37;3604614;80;99276;-87
2022/09/08 05:13:06;;;;;;;9.83;4.47;;;;;;;14.78;55.46;100221.58;3510101;80;99690;-88
2022/09/08 05:18:07;;;;;;;11.60;5.33;;;;;;;14.80;55.29;100237.17;3563650;80;98884;-88
2022/09/08 05:23:08;;;;;;;11.93;4.87;;;;;;;14.82;55.37;100244.50;3551149;80;99323;-88
2022/09/08 05:28:09;;;;;;;15.20;5.43;;;;;;;14.85;55.52;100243.08;3564323;80;99050;-88
2022/09/08 05:33:10;;;;;;;15.45;5.35;;;;;;;14.91;55.64;100246.98;3556833;80;99119;-87
2022/09/08 05:38:11;;;;;;;12.60;5.25;;;;;;;14.96;55.59;100246.53;3558895;80;99082;-86
2022/09/08 05:43:12;;;;;;;11.28;4.70;;;;;;;15.00;55.59;100256.20;3556227;80;99070;-86
2022/09/08 05:48:14;;;;;;;21.95;5.67;;;;;;;15.02;55.53;100242.12;3519203;80;99182;-87
2022/09/08 05:53:15;;;;;;;18.67;5.70;;;;;;;15.07;55.67;100251.96;3550908;80;99093;-87
2022/09/08 05:58:16;;;;;;;14.63;5.37;;;;;;;15.14;55.69;100260.20;3541448;80;99057;-88
2022/09/08 06:03:17;;;;;;;14.07;5.50;;;;;;;15.20;55.60;100244.72;3564982;80;99016;-87
2022/09/08 06:08:20;;;;;;;12.30;4.87;;;;;;;15.27;55.66;100250.95;3560667;80;99192;-86
2022/09/08 06:13:22;;;;;;;15.13;6.55;;;;;;;15.33;55.80;100247.97;3546288;82;99045;-88
2022/09/08 06:18:25;;;;;;;15.20;6.17;;;;;;;15.44;55.72;100239.52;3565876;80;99049;-82
2022/09/08 06:23:26;;;;;;;12.28;5.05;;;;;;;15.50;55.45;100247.56;3548071;81;99058;-86
2022/09/08 06:28:38;;;;;;;15.18;5.72;;;;;;;15.57;55.48;100244.11;3545063;80;99305;-87
2022/09/08 06:33:41;;;;;;;19.70;5.30;;;;;;;15.69;55.55;100235.23;3559369;80;99135;-87
2022/09/08 06:38:47;;;;;;;14.78;5.37;;;;;;;15.81;55.42;100233.29;3564946;80;99140;-85
2022/09/08 06:43:56;;;;;;;12.78;5.12;;;;;;;15.93;55.19;100236.91;3562181;80;99117;-87
2022/09/08 06:48:59;;;;;;;14.63;5.47;;;;;;;16.01;55.46;100245.31;3547271;81;99174;-85
2022/09/08 06:54:30;;;;;;;14.45;5.75;;;;;;;16.07;55.83;100249.81;3556728;81;100703;-84
2022/09/08 06:59:57;;;;;;;18.40;5.65;;;;;;;16.00;56.80;100222.93;3573583;80;99363;-86
2022/09/08 07:05:15;;;;;;;10.20;5.62;;;;;;;15.91;57.06;100212.94;3532283;80;99120;-86
2022/09/08 07:10:46;;;;;;;13.08;5.50;;;;;;;15.94;57.79;100198.83;3557790;80;99059;-84
2022/09/08 07:16:18;;;;;;;14.07;5.85;;;;;;;15.90;57.34;100199.47;3443773;81;99053;-84
2022/09/08 07:21:37;;;;;;;13.68;5.97;;;;;;;15.91;57.11;100194.13;3536620;81;99071;-84
2022/09/08 07:26:49;;;;;;;12.83;5.53;;;;;;;15.99;57.11;100185.87;3549653;81;99285;-87
2022/09/08 07:31:53;;;;;;;12.00;5.72;;;;;;;16.13;56.65;100192.61;3545059;81;99297;-84
2022/09/08 07:37:23;;;;;;;13.43;6.05;;;;;;;16.26;56.87;100181.09;3543841;81;99086;-85
2022/09/08 07:42:26;;;;;;;12.35;5.62;;;;;;;16.46;56.32;100182.76;3560010;82;99114;-84
2022/09/08 07:48:02;;;;;;;17.37;6.20;;;;;;;16.65;55.92;100173.71;3552985;82;99157;-86
2022/09/08 07:53:11;;;;;;;13.40;5.60;;;;;;;16.79;55.49;100167.12;3553472;81;99120;-85
2022/09/08 07:58:39;;;;;;;13.13;5.70;;;;;;;16.98;55.31;100164.95;3491275;81;98955;-86
2022/09/08 08:03:51;;;;;;;16.55;5.62;;;;;;;17.25;55.06;100187.87;3555929;81;99140;-86
2022/09/08 08:09:26;;;;;;;17.37;6.17;;;;;;;17.56;55.14;100164.21;3564982;81;98752;-85
2022/09/08 08:14:44;;;;;;;12.90;6.45;;;;;;;17.83;54.64;100173.92;3537074;82;100856;-86
2022/09/08 08:20:08;;;;;;;17.10;6.62;;;;;;;18.17;54.69;100174.34;3551572;81;99288;-85
2022/09/08 08:25:21;;;;;;;14.85;6.67;;;;;;;18.57;53.75;100169.39;3545320;81;99166;-84
2022/09/08 08:30:24;;;;;;;13.55;7.28;;;;;;;18.92;53.35;100178.24;3522793;82;99079;-84
2022/09/08 08:35:56;;;;;;;15.40;7.20;;;;;;;19.19;52.48;100181.48;3526070;82;98958;-85
2022/09/08 08:40:59;;;;;;;14.65;6.12;;;;;;;19.59;52.24;100183.53;3529034;81;99371;-85
2022/09/08 08:46:37;;;;;;;16.50;6.47;;;;;;;19.91;51.52;100192.34;3537563;81;99027;-85
2022/09/08 08:51:49;;;;;;;13.70;5.95;;;;;;;20.14;51.38;100172.48;3521551;82;99051;-85
2022/09/08 08:57:02;;;;;;;17.57;6.97;;;;;;;20.51;51.75;100161.28;3539174;81;99020;-87
2022/09/08 09:02:45;;;;;;;14.63;6.08;;;;;;;21.29;51.04;100161.53;3515662;81;99077;-87
2022/09/08 09:08:12;;;;;;;15.58;6.72;;;;;;;21.82;49.65;100152.54;3540879;81;99091;-86
2022/09/08 09:13:47;;;;;;;11.90;5.62;;;;;;;22.42;48.30;100143.88;3533802;82;98971;-85
2022/09/08 09:19:27;;;;;;;19.02;6.12;;;;;;;23.42;48.01;100138.50;3519383;82;99025;-86
2022/09/08 09:24:58;;;;;;;17.95;6.65;;;;;;;24.03;46.08;100141.63;3520559;82;99107;-86
2022/09/08 09:30:21;;;;;;;11.85;5.83;;;;;;;24.30;44.46;100137.28;3517844;81;99095;-85
2022/09/08 09:35:37;;;;;;;13.65;6.08;;;;;;;24.42;43.17;100136.27;3558982;81;99037;-82
2022/09/08 09:41:03;;;;;;;19.70;6.35;;;;;;;24.80;43.22;100123.68;3550618;81;98805;-85
2022/09/08 09:46:18;;;;;;;16.75;5.67;;;;;;;25.16;43.34;100112.12;3552573;80;99198;-86
2022/09/08 09:51:25;;;;;;;11.03;5.75;;;;;;;25.94;41.58;100115.71;3531048;81;99130;-85
2022/09/08 09:57:22;;;;;;;20.55;6.62;;;;;;;26.37;40.90;100102.12;3539432;80;99090;-86
2022/09/08 10:02:52;;;;;;;38.00;8.23;;;;;;;26.70;39.98;100094.11;3546962;80;99041;-78
2022/09/08 10:08:21;;;;;;;11.93;5.92;;;;;;;26.98;39.84;100087.49;3551267;82;98937;-85
2022/09/08 10:13:58;;;;;;;9.93;5.60;;;;;;;27.02;39.15;100083.06;3546136;82;99181;-84
2022/09/08 10:19:17;;;;;;;11.33;5.28;;;;;;;27.05;38.99;100085.66;3547759;81;98800;-83
2022/09/08 10:24:43;;;;;;;11.95;5.28;;;;;;;27.44;38.08;100079.78;3543699;81;99059;-84
2022/09/08 10:30:24;;;;;;;18.07;6.90;;;;;;;27.65;37.75;100084.70;3558479;81;98944;-84
2022/09/08 10:35:40;;;;;;;18.20;5.92;;;;;;;27.72;37.55;100077.17;3576978;81;99035;-84
2022/09/08 10:41:15;;;;;;;13.48;5.28;;;;;;;27.58;37.06;100076.03;3551276;81;99119;-85
2022/09/08 10:47:09;;;;;;;15.25;5.87;;;;;;;27.61;37.37;100062.32;3565963;81;99011;-84
2022/09/08 10:52:28;;;;;;;18.52;5.75;;;;;;;27.86;37.00;100075.66;3545290;81;99096;-83
2022/09/08 10:57:34;;;;;;;18.20;5.58;;;;;;;27.68;36.65;100083.72;3568287;82;98765;-83
2022/09/08 11:02:57;;;;;;;27.82;7.65;;;;;;;27.45;36.47;100086.98;3557572;81;99168;-83
2022/09/08 11:08:29;;;;;;;13.40;5.35;;;;;;;27.14;37.12;100077.01;3575601;81;99097;-83
2022/09/08 11:13:39;;;;;;;18.67;5.40;;;;;;;27.19;37.27;100084.03;3570199;81;99200;-85
2022/09/08 11:19:32;;;;;;;11.35;5.53;;;;;;;27.09;37.45;100074.90;3564841;81;99417;-84
2022/09/08 11:24:58;;;;;;;13.13;5.20;;;;;;;26.95;37.22;100068.73;3564150;81;99031;-84
2022/09/08 11:30:16;;;;;;;13.88;5.70;;;;;;;26.85;37.68;100059.48;3566099;81;99000;-86
2022/09/08 11:35:26;;;;;;;10.05;4.92;;;;;;;26.76;37.11;100061.83;3573502;80;99082;-85
2022/09/08 11:40:56;;;;;;;22.00;6.70;;;;;;;26.87;37.16;100041.42;3568960;80;99388;-85
2022/09/08 11:46:21;;;;;;;12.23;5.67;;;;;;;26.97;37.33;100047.81;3613643;80;99165;-86
2022/09/08 11:52:05;;;;;;;22.22;5.87;;;;;;;27.21;37.57;100024.34;3595168;80;99135;-86
2022/09/08 11:57:31;;;;;;;45.08;9.53;;;;;;;27.42;36.88;100025.02;3594576;80;99055;-86
2022/09/08 12:02:59;;;;;;;13.50;5.57;;;;;;;27.41;36.90;100011.52;3591621;80;99088;-84
2022/09/08 12:08:28;;;;;;;15.35;5.65;;;;;;;27.55;36.28;99997.89;3593326;80;99278;-86
2022/09/08 12:13:40;;;;;;;13.50;5.60;;;;;;;27.63;36.89;99998.96;3573884;81;105772;-85
2022/09/08 12:19:03;;;;;;;11.73;4.90;;;;;;;27.53;36.42;99998.25;3569003;80;99238;-85
2022/09/08 12:24:46;;;;;;;22.40;6.10;;;;;;;27.45;36.64;99978.78;3568421;80;98759;-86
2022/09/08 12:30:21;;;;;;;13.98;5.28;;;;;;;27.36;36.16;99974.09;3562247;80;99012;-86
2022/09/08 12:35:36;;;;;;;13.80;5.57;;;;;;;27.39;36.99;99950.49;3553772;81;124312;-86
2022/09/08 12:40:48;;;;;;;18.17;5.95;;;;;;;27.36;37.01;99933.77;3555981;81;99057;-83
2022/09/08 12:46:46;;;;;;;17.20;5.22;;;;;;;27.13;36.47;99933.44;3563347;81;99110;-84
2022/09/08 12:51:55;;;;;;;16.45;5.37;;;;;;;26.74;36.99;99928.86;3564694;81;99064;-86
2022/09/08 12:57:22;;;;;;;13.50;5.00;;;;;;;26.75;37.29;99921.93;3564024;81;99116;-85
2022/09/08 13:03:03;;;;;;;15.38;5.53;;;;;;;26.59;37.08;99909.84;3574068;80;99117;-80
2022/09/08 13:08:50;;;;;;;11.68;5.08;;;;;;;26.55;36.97;99899.42;3584627;80;99141;-84
2022/09/08 13:13:57;;;;;;;11.97;4.75;;;;;;;26.41;36.60;99897.45;3537003;80;98996;-83
2022/09/08 13:19:34;;;;;;;13.22;4.58;;;;;;;26.29;36.65;99899.23;3561005;80;98967;-84
2022/09/08 13:25:04;;;;;;;10.53;4.93;;;;;;;26.36;36.94;99890.31;3564019;80;108309;-85
2022/09/08 13:30:17;;;;;;;15.38;4.80;;;;;;;26.15;36.13;99884.60;3561321;80;99178;-85
2022/09/08 13:35:45;;;;;;;15.83;5.45;;;;;;;25.89;36.90;99891.55;3542458;80;99078;-85
2022/09/08 13:41:08;;;;;;;16.30;5.42;;;;;;;25.83;37.33;99878.67;3549776;80;98933;-86
2022/09/08 13:46:45;;;;;;;13.38;5.10;;;;;;;25.65;37.11;99882.53;3546971;80;98957;-85
2022/09/08 13:52:17;;;;;;;13.68;4.87;;;;;;;25.39;37.40;99870.39;3543479;80;98942;-84
2022/09/08 13:57:33;;;;;;;14.10;4.50;;;;;;;25.20;37.61;99877.52;3546767;81;98824;-84
2022/09/08 14:02:57;;;;;;;12.28;4.60;;;;;;;25.22;38.05;99883.44;3557239;82;99074;-84
2022/09/08 14:08:13;;;;;;;13.13;5.10;;;;;;;25.05;38.10;99876.77;3554650;81;98922;-84
2022/09/08 14:13:36;;;;;;;20.20;4.87;;;;;;;24.88;38.24;99889.02;3554215;82;99050;-85
2022/09/08 14:19:09;;;;;;;12.43;4.55;;;;;;;24.68;38.19;99860.17;3552941;80;98967;-84
2022/09/08 14:24:43;;;;;;;10.60;3.83;;;;;;;24.69;38.25;99858.14;3545530;80;99051;-83
2022/09/08 14:30:07;;;;;;;11.65;4.50;;;;;;;24.57;38.50;99848.70;3559234;80;98913;-85
2022/09/08 14:35:25;;;;;;;14.60;4.33;;;;;;;24.49;38.55;99839.73;3558666;81;98951;-84
2022/09/08 14:40:48;;;;;;;9.60;4.10;;;;;;;24.39;38.87;99845.30;3546976;80;99215;-84
2022/09/08 14:46:19;;;;;;;10.53;4.22;;;;;;;24.27;38.72;99836.52;3560032;80;98743;-85
2022/09/08 14:52:02;;;;;;;12.95;4.40;;;;;;;24.15;38.79;99846.02;3553299;80;98957;-85
2022/09/08 14:57:24;;;;;;;11.60;4.17;;;;;;;24.00;38.77;99836.78;3541032;81;99155;-84
2022/09/08 15:02:28;;;;;;;13.93;4.72;;;;;;;23.86;38.99;99827.67;3552665;81;98983;-83
2022/09/08 15:07:30;;;;;;;12.78;4.62;;;;;;;23.69;39.19;99826.54;3548550;81;98965;-85
2022/09/08 15:12:52;;;;;;;10.23;4.58;;;;;;;23.63;39.39;99836.89;3538489;82;99225;-85
2022/09/08 15:17:56;;;;;;;15.35;4.25;;;;;;;23.44;39.93;99817.23;3538832;82;99183;-85
2022/09/08 15:23:20;;;;;;;14.50;4.35;;;;;;;23.44;39.69;99834.84;3532012;81;99006;-85
2022/09/08 15:28:29;;;;;;;12.25;4.40;;;;;;;23.32;39.79;99836.50;3548351;81;98828;-83
2022/09/08 15:34:10;;;;;;;12.07;4.30;;;;;;;23.21;40.04;99841.23;3560767;81;98868;-85
2022/09/08 15:39:31;;;;;;;13.32;4.70;;;;;;;23.09;40.07;99843.61;3556013;80;98830;-84
2022/09/08 15:45:07;;;;;;;11.97;4.97;;;;;;;22.96;40.28;99846.48;3553478;82;98816;-85
2022/09/08 15:50:42;;;;;;;14.18;4.05;;;;;;;22.88;40.50;99839.02;3558437;81;98971;-85
2022/09/08 15:56:27;;;;;;;13.17;4.40;;;;;;;22.77;40.54;99828.94;3553442;82;98948;-85
2022/09/08 16:02:00;;;;;;;11.40;4.55;;;;;;;22.64;41.02;99831.80;3544086;81;98835;-86
2022/09/08 16:07:37;;;;;;;13.88;4.55;;;;;;;22.55;41.45;99839.62;3569335;81;98774;-85
2022/09/08 16:13:03;;;;;;;12.50;5.28;;;;;;;22.41;41.81;99836.06;3549121;81;98956;-85
2022/09/08 16:18:33;;;;;;;18.57;4.70;;;;;;;22.29;41.88;99832.80;3568844;80;98964;-85
2022/09/08 16:24:04;;;;;;;14.55;4.55;;;;;;;22.17;42.43;99828.15;3569620;81;99022;-85
2022/09/08 16:29:34;;;;;;;13.25;4.37;;;;;;;22.01;43.65;99831.28;3533916;82;99049;-84
2022/09/08 16:34:53;;;;;;;14.67;4.87;;;;;;;21.75;45.58;99841.25;3540898;81;108433;-84
2022/09/08 16:40:06;;;;;;;16.65;6.10;;;;;;;21.48;47.07;99868.43;3518851;82;99211;-84
2022/09/08 16:45:20;;;;;;;11.70;4.87;;;;;;;21.19;49.13;99875.81;3516418;82;98892;-84
2022/09/08 16:50:32;;;;;;;12.25;5.25;;;;;;;20.94;50.53;99933.41;3524147;82;98858;-84
2022/09/08 16:56:05;;;;;;;14.57;5.73;;;;;;;20.69;52.14;99961.50;3523776;81;99196;-83
2022/09/08 17:01:26;;;;;;;14.33;5.30;;;;;;;20.49;53.57;99968.66;3527072;81;98948;-83
2022/09/08 17:06:31;;;;;;;14.03;5.70;;;;;;;20.29;54.46;99963.39;3540232;81;98857;-82
2022/09/08 17:12:07;;;;;;;14.68;5.92;;;;;;;20.09;55.31;99943.34;3516548;82;99080;-84
2022/09/08 17:17:48;;;;;;;13.55;6.00;;;;;;;19.87;56.70;99934.11;3521161;81;98781;-85
2022/09/08 17:23:28;;;;;;;14.45;6.75;;;;;;;19.75;58.12;99926.55;3529925;81;98944;-84
2022/09/08 17:28:50;;;;;;;14.30;6.00;;;;;;;19.58;58.51;99922.95;3518697;81;98912;-83
2022/09/08 17:34:25;;;;;;;12.98;6.20;;;;;;;19.34;60.52;99917.59;3556833;81;98766;-85
2022/09/08 17:39:50;;;;;;;15.35;6.47;;;;;;;19.02;62.13;99917.79;3557028;81;98835;-84
2022/09/08 17:45:02;;;;;;;16.62;6.70;;;;;;;18.79;63.84;99907.73;3511032;81;98829;-85
2022/09/08 17:50:29;;;;;;;13.20;6.10;;;;;;;18.50;65.11;99904.83;3560323;81;98819;-85
2022/09/08 17:55:48;;;;;;;12.03;5.45;;;;;;;18.17;67.01;99898.59;3567951;80;98628;-87
2022/09/08 18:00:54;;;;;;;14.28;7.67;;;;;;;18.10;67.72;99909.15;3565404;80;98960;-86
2022/09/08 18:06:01;;;;;;;15.60;7.75;;;;;;;17.99;68.24;99908.03;3529078;80;98841;-86
2022/09/08 18:11:10;;;;;;;14.10;8.78;;;;;;;17.96;68.78;99921.45;3559954;81;98956;-85
2022/09/08 18:16:35;;;;;;;18.62;9.65;;;;;;;17.76;70.44;99920.02;3548394;81;98833;-85
2022/09/08 18:21:47;;;;;;;15.68;7.97;;;;;;;17.76;70.44;99920.02;3539494;81;98906;-85
2022/09/08 18:27:08;;;;;;;16.93;8.20;;;;;;;17.65;71.55;99913.32;3570285;80;98964;-86
2022/09/08 18:32:30;;;;;;;51.10;31.85;;;;;;;17.65;71.64;99929.26;3576110;80;98863;-87
2022/09/08 18:37:32;;;;;;;19.87;9.78;;;;;;;17.72;72.10;99926.28;3575472;80;99360;-86
2022/09/08 18:42:42;;;;;;;33.95;21.75;;;;;;;17.73;72.26;99930.63;3566706;80;98768;-87
2022/09/08 18:48:14;;;;;;;162.25;102.97;;;;;;;17.67;73.05;99937.94;3563697;80;99561;-86
2022/09/08 18:54:11;;;;;;;70.70;44.88;;;;;;;17.63;73.26;99956.13;3560457;81;99397;-84
2022/09/08 18:59:58;;;;;;;23.50;14.57;;;;;;;17.63;73.05;99973.42;3567273;80;98980;-87
2022/09/08 19:05:19;;;;;;;26.75;18.12;;;;;;;17.62;72.98;99990.74;3558107;81;99236;-87
2022/09/08 19:10:34;;;;;;;16.25;9.20;;;;;;;17.65;73.05;99989.86;3571886;80;99033;-87
2022/09/08 19:16:01;;;;;;;14.90;8.03;;;;;;;17.60;73.02;99979.24;3576263;81;98923;-85
2022/09/08 19:21:06;;;;;;;14.80;8.28;;;;;;;17.48;74.08;99974.97;3571174;81;98952;-86
2022/09/08 19:26:18;;;;;;;14.38;8.03;;;;;;;17.45;74.43;99971.05;3535034;81;98939;-86
2022/09/08 19:31:42;;;;;;;17.37;8.70;;;;;;;17.44;74.47;99970.13;3574685;82;98666;-85
2022/09/08 19:36:51;;;;;;;15.20;8.00;;;;;;;17.42;74.57;99966.38;3553549;81;98807;-86
2022/09/08 19:42:29;;;;;;;19.27;9.68;;;;;;;17.41;74.69;99973.16;3570803;81;98855;-86
2022/09/08 19:48:21;;;;;;;15.55;8.45;;;;;;;17.37;74.99;99962.69;3572208;81;98754;-84
2022/09/08 19:53:46;;;;;;;18.50;11.68;;;;;;;17.32;75.43;99965.98;3566473;80;99127;-85
2022/09/08 19:59:25;;;;;;;45.60;35.20;;;;;;;17.29;75.66;99957.73;3564691;81;99258;-85
2022/09/08 20:04:50;;;;;;;19.98;10.18;;;;;;;17.29;75.71;99961.31;3562717;81;99102;-88
2022/09/08 20:10:13;;;;;;;15.48;8.88;;;;;;;17.28;76.24;99962.50;3561092;81;99319;-90
2022/09/08 20:15:28;;;;;;;17.00;9.78;;;;;;;17.26;76.42;99959.97;3556951;81;98645;-89
2022/09/08 20:20:34;;;;;;;18.33;9.30;;;;;;;17.19;76.72;99955.37;3567022;82;99856;-86
2022/09/08 20:26:00;;;;;;;14.70;9.53;;;;;;;17.12;77.19;99956.91;3568990;82;98967;-86
2022/09/08 20:31:31;;;;;;;16.62;9.85;;;;;;;17.13;77.59;99955.72;3550597;81;98836;-86
2022/09/08 20:36:58;;;;;;;16.62;10.30;;;;;;;17.02;78.33;99957.96;3503983;81;98966;-88
2022/09/08 20:42:46;;;;;;;15.28;10.53;;;;;;;17.07;78.30;99952.48;3492459;83;99089;-89
2022/09/08 20:47:54;;;;;;;26.25;11.15;;;;;;;17.06;78.92;99948.91;3494839;83;99190;-89
2022/09/08 20:53:09;;;;;;;18.10;9.73;;;;;;;17.05;79.19;99955.69;3484305;83;99045;-85
2022/09/08 20:58:25;;;;;;;14.43;9.15;;;;;;;17.11;78.96;99967.86;3483110;83;99127;-85
2022/09/08 21:03:31;;;;;;;20.80;12.07;;;;;;;17.14;79.36;99978.14;3494725;82;99138;-84
2022/09/08 21:08:35;;;;;;;16.33;10.17;;;;;;;17.21;78.75;99973.80;3484327;83;106784;-86
2022/09/08 21:13:53;;;;;;;17.10;10.93;;;;;;;17.26;79.12;99978.05;3480558;82;99337;-86
2022/09/08 21:19:30;;;;;;;17.55;10.72;;;;;;;17.31;79.05;99970.58;3478763;83;99224;-86
2022/09/08 21:24:37;;;;;;;16.75;10.70;;;;;;;17.30;79.84;99966.24;3466219;83;99050;-83
2022/09/08 21:30:01;;;;;;;15.80;10.65;;;;;;;17.28;80.02;99970.84;3492182;83;99181;-84
2022/09/08 21:35:19;;;;;;;17.42;11.57;;;;;;;17.28;80.28;99986.14;3494822;82;99081;-86
2022/09/08 21:40:31;;;;;;;17.27;12.45;;;;;;;17.32;81.04;99974.33;3542339;81;99086;-84
2022/09/08 21:45:35;;;;;;;21.93;13.00;;;;;;;17.33;81.76;99980.69;3560100;81;99066;-85
2022/09/08 21:50:57;;;;;;;18.07;12.63;;;;;;;17.32;82.12;99983.27;3545036;80;98860;-86
2022/09/08 21:56:08;;;;;;;17.45;12.98;;;;;;;17.35;82.22;99984.61;3565305;80;99086;-86
2022/09/08 22:01:30;;;;;;;18.75;13.22;;;;;;;17.33;83.09;99984.23;3542390;80;99058;-86
2022/09/08 22:06:32;;;;;;;18.15;12.03;;;;;;;17.34;83.63;99978.08;3539586;82;99089;-86
2022/09/08 22:11:39;;;;;;;17.35;12.50;;;;;;;17.35;83.39;99978.25;3551918;81;99044;-87
2022/09/08 22:16:50;;;;;;;18.87;12.15;;;;;;;17.41;82.99;99998.80;3550473;81;100153;-86
2022/09/08 22:22:13;;;;;;;21.20;12.43;;;;;;;17.44;83.40;100000.09;3559067;82;98938;-87
2022/09/08 22:27:26;;;;;;;21.62;12.58;;;;;;;17.48;83.77;100006.97;3548751;82;99153;-87
2022/09/08 22:32:41;;;;;;;18.48;12.10;;;;;;;17.48;84.32;99999.42;3542109;82;99287;-88
2022/09/08 22:38:13;;;;;;;21.37;16.17;;;;;;;17.51;84.32;100005.52;3545536;81;98850;-87
2022/09/08 22:44:01;;;;;;;17.02;11.53;;;;;;;17.52;85.46;100000.72;3559371;81;99326;-88
2022/09/08 22:49:07;;;;;;;18.67;11.90;;;;;;;17.54;84.37;100003.88;3532326;82;99179;-86
2022/09/08 22:54:49;;;;;;;17.65;12.28;;;;;;;17.65;83.49;100001.61;3529310;82;99227;-84
2022/09/08 22:59:55;;;;;;;15.83;10.40;;;;;;;17.72;83.31;99998.02;3563984;82;99229;-86
2022/09/08 23:05:25;;;;;;;17.02;11.38;;;;;;;17.79;82.51;100002.05;3551701;82;99475;-81
2022/09/08 23:10:27;;;;;;;19.90;13.68;;;;;;;17.85;81.83;100012.83;3558119;82;99136;-80
2022/09/08 23:15:54;;;;;;;16.32;10.23;;;;;;;17.83;83.17;100008.28;3538238;82;99137;-81
2022/09/08 23:21:32;;;;;;;11.53;7.72;;;;;;;17.81;84.19;99997.41;3539737;82;99200;-81
2022/09/08 23:26:48;;;;;;;16.70;12.03;;;;;;;17.73;86.27;100003.78;3485729;80;102285;-83
2022/09/08 23:32:24;;;;;;;20.08;14.00;;;;;;;17.74;86.39;100004.55;3529017;82;99514;-83
2022/09/08 23:37:35;;;;;;;17.30;13.33;;;;;;;17.72;88.33;100015.34;3540263;82;99204;-85
2022/09/08 23:42:44;;;;;;;16.82;11.48;;;;;;;17.66;88.26;100015.70;3561974;81;99132;-84
2022/09/08 23:47:50;;;;;;;18.57;11.70;;;;;;;17.67;87.51;100011.69;3551914;81;99107;-84
2022/09/08 23:52:59;;;;;;;15.28;11.43;;;;;;;17.74;86.58;100019.86;3566067;82;99151;-84
2022/09/08 23:58:01;;;;;;;15.63;9.68;;;;;;;17.78;87.38;100026.13;3536794;82;99209;-85
